createdAt,value
2023-06-11T00:00:53.662Z,69111.25
2023-06-11T00:03:22.573Z,69111.66
2023-06-11T00:05:50.163Z,69107.28
2023-06-11T00:08:17.570Z,69105.19
2023-06-11T00:10:45.056Z,69107.28
2023-06-11T00:13:12.611Z,69097.78
2023-06-11T00:15:40.091Z,69085.63
2023-06-11T00:18:07.653Z,69077.84
2023-06-11T00:20:42.932Z,69079.34
2023-06-11T00:23:10.600Z,69063.97
2023-06-11T00:25:38.434Z,69055.19
2023-06-11T00:28:06.186Z,69048.38
2023-06-11T00:30:33.621Z,69049.88
2023-06-11T00:33:01.590Z,69050.28
2023-06-11T00:35:29.145Z,69044.03
2023-06-11T00:37:58.983Z,69027.69
2023-06-11T00:40:26.473Z,69021.78
2023-06-11T00:42:54.052Z,69015.31
2023-06-11T00:45:23.634Z,69018.41
2023-06-11T00:47:51.709Z,69021.41
2023-06-11T00:53:20.510Z,69017.25
2023-06-11T00:56:09.786Z,69015.13
2023-06-11T00:58:43.428Z,69011.56
2023-06-11T01:01:27.624Z,69002.44
2023-06-11T01:03:59.087Z,68994.28
2023-06-11T01:06:30.013Z,68984.22
2023-06-11T01:08:59.698Z,68964.06
2023-06-11T01:11:36.722Z,68960.31
2023-06-11T01:14:12.277Z,68966.00
2023-06-11T01:16:49.024Z,68956.13
2023-06-11T01:19:35.054Z,68947.22
2023-06-11T01:22:10.354Z,68940.97
2023-06-11T01:25:03.059Z,68937.53
2023-06-11T01:27:55.743Z,68933.00
2023-06-11T01:30:25.209Z,68939.25
2023-06-11T01:32:54.534Z,68941.13
2023-06-11T01:35:26.773Z,68940.97
2023-06-11T01:37:59.364Z,68920.22
2023-06-11T01:40:36.951Z,68909.81
2023-06-11T01:43:06.818Z,68895.41
2023-06-11T01:45:35.397Z,68888.97
2023-06-11T01:48:02.955Z,68875.69
2023-06-11T01:50:31.674Z,68869.63
2023-06-11T01:52:59.151Z,68869.03
2023-06-11T01:55:28.800Z,68870.94
2023-06-11T01:57:56.848Z,68873.03
2023-06-11T02:00:24.168Z,68871.50
2023-06-11T02:02:51.735Z,68871.31
2023-06-11T02:05:19.305Z,68863.91
2023-06-11T02:07:47.182Z,68864.84
2023-06-11T02:10:14.825Z,68858.59
2023-06-11T02:12:42.280Z,68862.19
2023-06-11T02:15:10.512Z,68877.03
2023-06-11T02:17:38.367Z,68867.13
2023-06-11T02:20:07.628Z,68861.03
2023-06-11T02:22:35.751Z,68857.66
2023-06-11T02:25:03.618Z,68856.72
2023-06-11T02:27:32.411Z,68845.13
2023-06-11T02:30:02.894Z,68853.47
2023-06-11T02:32:31.985Z,68861.06
2023-06-11T02:35:02.500Z,68858.41
2023-06-11T02:37:29.971Z,68862.03
2023-06-11T02:39:57.702Z,68859.16
2023-06-11T02:42:41.116Z,68857.84
2023-06-11T02:45:11.510Z,68852.34
2023-06-11T02:47:39.949Z,68853.31
2023-06-11T02:50:07.981Z,68853.13
2023-06-11T02:52:35.485Z,68853.69
2023-06-11T02:55:03.037Z,68845.72
2023-06-11T02:57:30.897Z,68846.84
2023-06-11T02:59:58.387Z,68847.97
2023-06-11T03:02:25.906Z,68847.63
2023-06-11T03:04:53.320Z,68838.13
2023-06-11T03:07:21.327Z,68837.00
2023-06-11T03:09:48.763Z,68836.81
2023-06-11T03:12:16.612Z,68831.31
2023-06-11T03:14:44.669Z,68837.56
2023-06-11T03:17:12.155Z,68850.66
2023-06-11T03:19:39.707Z,68863.94
2023-06-11T03:22:08.103Z,68855.75
2023-06-11T03:24:35.904Z,68844.94
2023-06-11T03:27:13.505Z,68837.00
2023-06-11T03:29:41.591Z,68842.50
2023-06-11T03:32:11.944Z,68833.00
2023-06-11T03:34:44.095Z,68828.66
2023-06-11T03:37:12.615Z,68831.34
2023-06-11T03:39:40.116Z,68824.84
2023-06-11T03:42:08.348Z,68820.47
2023-06-11T03:44:36.363Z,68834.31
2023-06-11T03:47:04.238Z,68837.59
2023-06-11T03:49:31.917Z,68831.47
2023-06-11T03:51:59.528Z,68836.25
2023-06-11T03:54:27.256Z,68841.53
2023-06-11T03:56:55.522Z,68850.44
2023-06-11T03:59:22.967Z,68850.66
2023-06-11T04:01:50.528Z,68862.63
2023-06-11T04:04:18.122Z,68852.34
2023-06-11T04:06:45.720Z,68859.56
2023-06-11T04:09:13.982Z,68857.28
2023-06-11T04:11:41.486Z,68846.47
2023-06-11T04:14:08.915Z,68845.91
2023-06-11T04:16:36.538Z,68839.06
2023-06-11T04:19:06.961Z,68828.84
2023-06-11T04:21:34.927Z,68829.59
2023-06-11T04:24:07.480Z,68838.13
2023-06-11T04:26:38.293Z,68844.94
2023-06-11T04:29:06.550Z,68855.19
2023-06-11T04:31:34.217Z,68859.72
2023-06-11T04:34:08.295Z,68869.03
2023-06-11T04:36:39.672Z,68887.44
2023-06-11T04:39:09.450Z,68905.66
2023-06-11T04:41:39.008Z,68921.75
2023-06-11T04:44:07.462Z,68948.75
2023-06-11T04:46:35.948Z,68949.69
2023-06-11T04:49:08.199Z,68978.91
2023-06-11T04:51:42.105Z,69019.75
2023-06-11T04:54:10.998Z,69031.09
2023-06-11T04:56:45.191Z,69068.34
2023-06-11T04:59:13.412Z,69102.91
2023-06-11T05:01:48.030Z,69177.97
2023-06-11T05:04:18.630Z,69252.84
2023-06-11T05:06:47.175Z,69252.84
2023-06-11T05:09:18.670Z,69226.22
2023-06-11T05:11:49.233Z,69204.38
2023-06-11T05:14:17.882Z,69235.16
2023-06-11T05:16:47.301Z,69230.78
2023-06-11T05:19:15.862Z,69248.28
2023-06-11T05:21:43.544Z,69264.09
2023-06-11T05:24:20.247Z,69247.72
2023-06-11T05:26:49.351Z,69270.72
2023-06-11T05:29:17.324Z,69282.34
2023-06-11T05:31:46.195Z,69301.13
2023-06-11T05:34:14.573Z,69304.59
2023-06-11T05:36:43.386Z,69295.06
2023-06-11T05:39:15.034Z,69307.78
2023-06-11T05:41:43.028Z,69311.03
2023-06-11T05:44:11.006Z,69320.94
2023-06-11T05:46:40.215Z,69338.63
2023-06-11T05:49:08.636Z,69349.47
2023-06-11T05:51:37.292Z,69355.16
2023-06-11T05:54:06.067Z,69337.47
2023-06-11T05:56:35.776Z,69365.44
2023-06-11T05:59:03.495Z,69359.56
2023-06-11T06:01:34.419Z,69374.41
2023-06-11T06:04:03.686Z,69376.53
2023-06-11T06:06:32.219Z,69395.69
2023-06-11T06:09:00.478Z,69411.28
2023-06-11T06:11:28.710Z,69418.31
2023-06-11T06:13:56.596Z,69425.41
2023-06-11T06:16:27.622Z,69469.75
2023-06-11T06:18:58.324Z,69479.50
2023-06-11T06:21:25.910Z,69497.78
2023-06-11T06:23:53.502Z,69533.19
2023-06-11T06:26:21.411Z,69528.63
2023-06-11T06:28:49.365Z,69553.91
2023-06-11T06:31:18.739Z,69597.38
2023-06-11T06:33:47.709Z,69593.94
2023-06-11T06:36:15.766Z,69656.50
2023-06-11T06:38:43.325Z,69632.09
2023-06-11T06:41:10.724Z,69638.94
2023-06-11T06:43:38.210Z,69608.22
2023-06-11T06:46:12.619Z,69631.09
2023-06-11T06:48:40.877Z,69639.66
2023-06-11T06:51:09.210Z,69645.97
2023-06-11T06:53:41.232Z,69650.53
2023-06-11T06:56:09.768Z,69652.84
2023-06-11T06:58:37.363Z,69654.56
2023-06-11T07:01:05.068Z,69684.88
2023-06-11T07:03:35.069Z,69709.47
2023-06-11T07:06:03.527Z,69720.34
2023-06-11T07:08:32.613Z,69719.75
2023-06-11T07:11:01.726Z,69739.47
2023-06-11T07:13:37.884Z,69738.63
2023-06-11T07:16:07.102Z,69730.44
2023-06-11T07:18:36.529Z,69726.78
2023-06-11T07:21:04.092Z,69750.66
2023-06-11T07:23:32.505Z,69767.84
2023-06-11T07:26:03.435Z,69784.59
2023-06-11T07:28:33.929Z,69791.28
2023-06-11T07:31:03.437Z,69757.81
2023-06-11T07:33:31.396Z,69792.69
2023-06-11T07:36:00.859Z,69774.53
2023-06-11T07:38:31.015Z,69793.75
2023-06-11T07:40:58.516Z,69763.25
2023-06-11T07:43:26.645Z,69745.91
2023-06-11T07:45:54.499Z,69740.59
2023-06-11T07:48:21.972Z,69726.44
2023-06-11T07:50:51.329Z,69770.13
2023-06-11T07:53:22.992Z,69759.81
2023-06-11T07:55:57.258Z,69790.97
2023-06-11T07:58:25.176Z,69791.84
2023-06-11T08:00:54.064Z,69781.00
2023-06-11T08:03:22.465Z,69807.31
2023-06-11T08:05:49.969Z,69815.72
2023-06-11T08:08:17.562Z,69811.31
2023-06-11T08:10:47.006Z,69832.75
2023-06-11T08:13:15.459Z,69843.97
2023-06-11T08:15:43.019Z,69854.84
2023-06-11T08:18:10.555Z,69849.13
2023-06-11T08:20:38.354Z,69810.34
2023-06-11T08:23:06.036Z,69783.28
2023-06-11T08:25:33.420Z,69755.25
2023-06-11T08:28:00.692Z,69816.63
2023-06-11T08:30:28.284Z,69810.75
2023-06-11T08:32:57.526Z,69858.25
2023-06-11T08:35:25.185Z,69879.88
2023-06-11T08:37:52.719Z,69906.94
2023-06-11T08:40:22.928Z,69918.81
2023-06-11T08:42:51.920Z,69931.00
2023-06-11T08:45:19.497Z,69936.16
2023-06-11T08:47:57.924Z,69924.13
2023-06-11T08:50:26.209Z,69917.09
2023-06-11T08:52:54.445Z,69881.75
2023-06-11T08:55:22.214Z,69802.56
2023-06-11T08:57:52.808Z,69743.47
2023-06-11T09:00:20.603Z,69706.59
2023-06-11T09:02:52.199Z,69701.19
2023-06-11T09:05:20.129Z,69771.09
2023-06-11T09:07:53.911Z,69783.84
2023-06-11T09:10:22.476Z,69820.47
2023-06-11T09:12:50.740Z,69853.94
2023-06-11T09:15:19.777Z,69885.59
2023-06-11T09:17:50.254Z,69842.81
2023-06-11T09:20:22.683Z,69835.63
2023-06-11T09:22:51.896Z,69833.91
2023-06-11T09:25:19.650Z,69791.28
2023-06-11T09:27:49.093Z,69759.81
2023-06-11T09:30:18.801Z,69799.88
2023-06-11T09:32:49.161Z,69842.25
2023-06-11T09:35:21.348Z,69797.00
2023-06-11T09:37:52.794Z,69791.28
2023-06-11T09:40:25.203Z,69823.19
2023-06-11T09:42:52.840Z,69864.00
2023-06-11T09:45:22.925Z,69860.41
2023-06-11T09:47:52.621Z,69894.75
2023-06-11T09:50:21.400Z,69892.63
2023-06-11T09:52:51.364Z,69890.16
2023-06-11T09:55:19.105Z,69915.56
2023-06-11T09:57:47.852Z,69915.81
2023-06-11T10:00:16.927Z,69905.63
2023-06-11T10:02:46.068Z,69929.69
2023-06-11T10:05:14.379Z,69923.41
2023-06-11T10:07:56.968Z,69860.56
2023-06-11T10:10:25.910Z,69864.56
2023-06-11T10:12:54.576Z,69790.41
2023-06-11T10:15:24.833Z,69816.28
2023-06-11T10:17:54.586Z,69844.69
2023-06-11T10:20:29.054Z,69895.91
2023-06-11T10:23:12.396Z,69848.53
2023-06-11T10:25:41.965Z,69806.31
2023-06-11T10:28:11.089Z,69823.34
2023-06-11T10:30:39.592Z,69870.13
2023-06-11T10:33:07.233Z,69882.88
2023-06-11T10:35:34.761Z,69915.38
2023-06-11T10:38:03.839Z,69941.88
2023-06-11T10:40:36.892Z,69938.88
2023-06-11T10:43:15.799Z,69961.34
2023-06-11T10:45:44.462Z,70008.78
2023-06-11T10:48:29.821Z,70015.38
2023-06-11T10:51:14.507Z,69968.38
2023-06-11T10:53:42.625Z,69981.69
2023-06-11T10:56:13.828Z,69985.00
2023-06-11T10:58:42.159Z,69974.97
2023-06-11T11:01:10.147Z,69933.69
2023-06-11T11:03:39.832Z,69888.06
2023-06-11T11:06:10.087Z,69893.34
2023-06-11T11:12:08.916Z,69811.47
2023-06-11T11:14:49.890Z,69838.81
2023-06-11T11:17:18.064Z,69872.59
2023-06-11T11:19:46.608Z,69838.25
2023-06-11T11:22:14.451Z,69784.25
2023-06-11T11:24:44.702Z,69778.72
2023-06-11T11:27:15.699Z,69838.81
2023-06-11T11:29:44.262Z,69883.88
2023-06-11T11:32:11.954Z,69912.13
2023-06-11T11:34:42.661Z,69949.16
2023-06-11T11:37:10.601Z,69972.81
2023-06-11T11:39:38.083Z,69973.06
2023-06-11T11:42:08.576Z,69982.56
2023-06-11T11:44:41.080Z,70008.78
2023-06-11T11:47:15.937Z,70055.03
2023-06-11T11:49:45.928Z,70066.41
2023-06-11T11:52:14.225Z,70048.88
2023-06-11T11:54:45.790Z,70037.56
2023-06-11T11:57:13.587Z,70025.38
2023-06-11T11:59:41.968Z,69979.28
2023-06-11T12:02:10.833Z,69984.53
2023-06-11T12:04:40.765Z,69906.94
2023-06-11T12:07:13.683Z,69853.97
2023-06-11T12:09:41.518Z,69875.28
2023-06-11T12:12:10.212Z,69870.13
2023-06-11T12:14:39.482Z,69926.84
2023-06-11T12:17:12.584Z,69908.09
2023-06-11T12:19:40.319Z,69865.72
2023-06-11T12:22:08.091Z,69911.94
2023-06-11T12:24:38.005Z,69973.38
2023-06-11T12:27:10.287Z,70012.06
2023-06-11T12:29:40.222Z,69999.19
2023-06-11T12:32:14.420Z,69967.09
2023-06-11T12:34:41.989Z,69969.63
2023-06-11T12:37:11.570Z,69948.78
2023-06-11T12:39:39.163Z,69954.06
2023-06-11T12:42:07.748Z,69938.88
2023-06-11T12:44:35.451Z,69882.72
2023-06-11T12:47:03.527Z,69905.63
2023-06-11T12:49:32.878Z,69929.69
2023-06-11T12:52:01.199Z,69960.06
2023-06-11T12:54:28.767Z,69984.31
2023-06-11T12:56:56.306Z,69963.09
2023-06-11T12:59:24.325Z,69924.28
2023-06-11T13:01:52.560Z,69934.72
2023-06-11T13:04:20.104Z,69938.88
2023-06-11T13:06:47.884Z,69974.22
2023-06-11T13:09:16.208Z,70015.38
2023-06-11T13:11:47.941Z,70017.53
2023-06-11T13:14:18.111Z,69965.78
2023-06-11T13:16:47.230Z,69864.25
2023-06-11T13:19:15.072Z,69839.22
2023-06-11T13:21:44.009Z,69879.44
2023-06-11T13:24:11.713Z,69927.81
2023-06-11T13:26:39.765Z,69950.47
2023-06-11T13:29:07.393Z,69974.38
2023-06-11T13:31:34.970Z,69963.91
2023-06-11T13:34:02.854Z,69977.41
2023-06-11T13:36:30.905Z,70011.06
2023-06-11T13:38:58.500Z,69987.16
2023-06-11T13:41:33.058Z,69971.53
2023-06-11T13:44:07.367Z,69891.31
2023-06-11T13:46:36.357Z,69811.91
2023-06-11T13:49:05.591Z,69792.84
2023-06-11T13:51:33.678Z,69827.19
2023-06-11T13:54:01.341Z,69880.59
2023-06-11T13:56:28.892Z,69922.59
2023-06-11T13:59:06.763Z,69956.19
2023-06-11T14:01:34.926Z,69947.63
2023-06-11T14:04:02.891Z,69972.81
2023-06-11T14:06:33.451Z,69988.72
2023-06-11T14:09:01.673Z,69995.16
2023-06-11T14:11:32.980Z,69990.03
2023-06-11T14:14:03.874Z,69971.66
2023-06-11T14:16:37.510Z,69971.53
2023-06-11T14:19:08.292Z,69969.63
2023-06-11T14:21:36.494Z,69964.94
2023-06-11T14:24:04.910Z,69966.53
2023-06-11T14:26:32.994Z,69965.78
2023-06-11T14:29:01.449Z,69986.59
2023-06-11T14:31:37.339Z,70022.34
2023-06-11T14:34:06.222Z,70033.56
2023-06-11T14:36:34.208Z,70008.78
2023-06-11T14:39:05.761Z,69970.38
2023-06-11T14:41:33.598Z,69997.16
2023-06-11T14:44:01.710Z,69982.56
2023-06-11T14:46:29.612Z,69984.53
2023-06-11T14:48:57.398Z,70014.66
2023-06-11T14:51:25.180Z,70027.97
2023-06-11T14:53:52.771Z,70002.06
2023-06-11T14:56:20.935Z,69933.00
2023-06-11T14:58:48.465Z,69864.00
2023-06-11T15:01:16.048Z,69871.13
2023-06-11T15:03:43.901Z,69894.91
2023-06-11T15:06:12.190Z,69938.28
2023-06-11T15:08:39.726Z,69952.78
2023-06-11T15:11:07.728Z,69936.31
2023-06-11T15:13:35.372Z,69963.50
2023-06-11T15:16:02.759Z,69953.19
2023-06-11T15:18:30.161Z,69942.44
2023-06-11T15:20:57.656Z,69920.69
2023-06-11T15:23:25.097Z,69939.59
2023-06-11T15:25:53.781Z,69932.16
2023-06-11T15:28:21.729Z,69926.28
2023-06-11T15:30:49.301Z,69920.97
2023-06-11T15:33:19.028Z,69917.25
2023-06-11T15:35:46.718Z,69921.69
2023-06-11T15:38:14.244Z,69944.91
2023-06-11T15:40:42.446Z,69955.22
2023-06-11T15:43:10.423Z,69935.03
2023-06-11T15:45:38.415Z,69934.28
2023-06-11T15:48:06.156Z,69940.59
2023-06-11T15:50:33.784Z,69940.44
2023-06-11T15:53:01.250Z,69928.16
2023-06-11T15:55:30.500Z,69917.84
2023-06-11T15:57:58.055Z,69905.22
2023-06-11T16:00:26.066Z,69890.63
2023-06-11T16:02:53.734Z,69931.59
2023-06-11T16:05:21.287Z,69941.31
2023-06-11T16:07:48.786Z,69908.34
2023-06-11T16:10:16.546Z,69894.19
2023-06-11T16:12:46.118Z,69894.91
2023-06-11T16:15:16.102Z,69894.44
2023-06-11T16:17:46.170Z,69875.28
2023-06-11T16:20:15.930Z,69873.72
2023-06-11T16:22:43.473Z,69884.59
2023-06-11T16:25:11.689Z,69862.84
2023-06-11T16:27:40.543Z,69890.16
2023-06-11T16:30:09.297Z,69902.19
2023-06-11T16:32:36.968Z,69894.91
2023-06-11T16:35:07.798Z,69875.44
2023-06-11T16:37:35.488Z,69877.16
2023-06-11T16:40:07.504Z,69852.22
2023-06-11T16:42:35.017Z,69826.22
2023-06-11T16:45:02.664Z,69798.44
2023-06-11T16:47:30.236Z,69826.63
2023-06-11T16:49:59.922Z,69830.78
2023-06-11T16:52:28.642Z,69852.97
2023-06-11T16:54:58.822Z,69834.78
2023-06-11T16:57:26.353Z,69837.09
2023-06-11T16:59:54.607Z,69831.94
2023-06-11T17:02:23.791Z,69820.16
2023-06-11T17:04:53.461Z,69792.84
2023-06-11T17:07:21.126Z,69790.31
2023-06-11T17:09:48.632Z,69788.84
2023-06-11T17:12:17.714Z,69791.84
2023-06-11T17:14:48.229Z,69798.16
2023-06-11T17:17:15.834Z,69801.59
2023-06-11T17:19:46.382Z,69792.13
2023-06-11T17:22:16.566Z,69781.81
2023-06-11T17:24:44.449Z,69769.97
2023-06-11T17:27:12.544Z,69755.25
2023-06-11T17:29:40.061Z,69750.25
2023-06-11T17:32:08.381Z,69758.19
2023-06-11T17:34:38.660Z,69747.81
2023-06-11T17:37:08.138Z,69746.66
2023-06-11T17:39:35.645Z,69731.03
2023-06-11T17:42:02.977Z,69739.03
2023-06-11T17:44:30.731Z,69723.03
2023-06-11T17:46:58.262Z,69720.56
2023-06-11T17:49:26.374Z,69718.06
2023-06-11T17:51:53.861Z,69695.16
2023-06-11T17:54:23.058Z,69693.28
2023-06-11T17:56:51.216Z,69691.16
2023-06-11T17:59:18.564Z,69680.13
2023-06-11T18:01:54.297Z,69672.28
2023-06-11T18:04:24.101Z,69663.72
2023-06-11T18:06:52.357Z,69659.53
2023-06-11T18:09:20.457Z,69662.41
2023-06-11T18:14:44.120Z,69651.69
2023-06-11T18:17:11.701Z,69650.97
2023-06-11T18:19:38.925Z,69650.38
2023-06-11T18:22:06.845Z,69629.94
2023-06-11T18:33:12.954Z,69596.09
2023-06-11T18:35:42.598Z,69590.38
2023-06-11T18:38:18.420Z,69584.47
2023-06-11T18:40:46.158Z,69586.38
2023-06-11T18:43:13.941Z,69571.09
2023-06-11T18:45:44.273Z,69560.59
2023-06-11T18:48:12.040Z,69560.59
2023-06-11T18:50:41.719Z,69553.19
2023-06-11T18:53:17.024Z,69545.34
2023-06-11T18:55:57.663Z,69532.63
2023-06-11T18:58:35.067Z,69521.78
2023-06-11T19:01:07.688Z,69507.66
2023-06-11T19:03:39.285Z,69505.38
2023-06-11T19:06:14.636Z,69496.78
2023-06-11T19:08:44.701Z,69502.91
2023-06-11T19:11:17.901Z,69494.19
2023-06-11T19:13:48.689Z,69500.47
2023-06-11T19:16:16.864Z,69493.63
2023-06-11T19:18:56.380Z,69485.22
2023-06-11T19:21:26.059Z,69469.94
2023-06-11T19:24:02.485Z,69470.75
2023-06-11T19:26:30.940Z,69466.75
2023-06-11T19:28:58.298Z,69464.47
2023-06-11T19:31:28.365Z,69450.34
2023-06-11T19:33:59.654Z,69440.25
2023-06-11T19:36:26.892Z,69454.00
2023-06-11T19:38:57.981Z,69445.94
2023-06-11T19:41:30.359Z,69451.31
2023-06-11T19:44:00.911Z,69444.47
2023-06-11T19:46:35.564Z,69433.63
2023-06-11T19:49:03.821Z,69439.34
2023-06-11T19:51:33.764Z,69430.78
2023-06-11T19:54:04.362Z,69426.38
2023-06-11T19:56:45.241Z,69424.06
2023-06-11T19:59:42.266Z,69432.13
2023-06-11T20:02:09.506Z,69421.63
2023-06-11T20:04:38.160Z,69410.97
2023-06-11T20:07:08.742Z,69408.09
2023-06-11T20:09:41.172Z,69403.69
2023-06-11T20:12:08.728Z,69403.94
2023-06-11T20:14:37.088Z,69406.78
2023-06-11T20:17:09.518Z,69405.66
2023-06-11T20:19:37.149Z,69391.69
2023-06-11T20:22:07.698Z,69385.44
2023-06-11T20:24:41.069Z,69394.06
2023-06-11T20:27:11.619Z,69381.25
2023-06-11T20:29:41.310Z,69385.09
2023-06-11T20:32:14.609Z,69382.41
2023-06-11T20:34:41.843Z,69378.00
2023-06-11T20:37:09.413Z,69384.94
2023-06-11T20:39:40.342Z,69376.13
2023-06-11T20:42:08.168Z,69381.59
2023-06-11T20:44:38.603Z,69370.59
2023-06-11T20:47:07.112Z,69360.50
2023-06-11T20:49:34.623Z,69363.53
2023-06-11T20:52:01.841Z,69366.22
2023-06-11T20:54:29.643Z,69355.16
2023-06-11T20:56:56.714Z,69355.72
2023-06-11T20:59:24.269Z,69344.72
2023-06-11T21:01:51.549Z,69331.03
2023-06-11T21:04:21.044Z,69322.06
2023-06-11T21:06:48.488Z,69330.09
2023-06-11T21:09:18.130Z,69317.72
2023-06-11T21:11:45.465Z,69314.31
2023-06-11T21:14:21.142Z,69305.34
2023-06-11T21:16:51.626Z,69295.66
2023-06-11T21:19:21.928Z,69282.94
2023-06-11T21:21:49.129Z,69249.44
2023-06-11T21:24:19.366Z,69243.19
2023-06-11T21:26:46.661Z,69211.03
2023-06-11T21:29:16.218Z,69187.84
2023-06-11T21:31:44.012Z,69176.84
2023-06-11T21:34:11.196Z,69156.66
2023-06-11T21:36:38.407Z,69160.66
2023-06-11T21:39:05.860Z,69155.72
2023-06-11T21:41:34.977Z,69156.47
2023-06-11T21:44:02.197Z,69149.06
2023-06-11T21:46:29.405Z,69144.31
2023-06-11T21:48:59.057Z,69129.09
2023-06-11T21:51:30.292Z,69127.59
2023-06-11T21:54:00.380Z,69134.63
2023-06-11T21:56:27.784Z,69140.50
2023-06-11T21:58:55.278Z,69151.72
2023-06-11T22:01:22.608Z,69150.59
2023-06-11T22:03:49.971Z,69161.25
2023-06-11T22:06:17.413Z,69155.31
2023-06-11T22:08:45.789Z,69147.91
2023-06-11T22:11:13.486Z,69142.63
2023-06-11T22:13:40.976Z,69129.28
2023-06-11T22:16:08.292Z,69134.06
2023-06-11T22:18:35.564Z,69136.16
2023-06-11T22:21:02.884Z,69125.53
2023-06-11T22:23:45.689Z,69125.34
2023-06-11T22:26:18.436Z,69119.81
2023-06-11T22:28:45.900Z,69122.66
2023-06-11T22:31:13.394Z,69116.22
2023-06-11T22:33:40.815Z,69109.72
2023-06-11T22:36:08.153Z,69115.66
2023-06-11T22:38:35.588Z,69112.00
2023-06-11T22:41:03.009Z,69101.00
2023-06-11T22:43:32.440Z,69091.50
2023-06-11T22:45:59.636Z,69082.38
2023-06-11T22:48:26.858Z,69084.66
2023-06-11T22:50:53.984Z,69082.38
2023-06-11T22:53:22.728Z,69077.09
2023-06-11T22:55:49.841Z,69087.72
2023-06-11T22:58:23.882Z,69070.44
2023-06-11T23:00:51.023Z,69073.66
2023-06-11T23:03:18.504Z,69058.06
2023-06-11T23:05:45.911Z,69059.63
2023-06-11T23:08:13.072Z,69056.41
2023-06-11T23:10:40.180Z,69045.72
2023-06-11T23:13:07.491Z,69044.41
2023-06-11T23:15:34.659Z,69044.41
2023-06-11T23:18:06.119Z,69037.38
2023-06-11T23:20:36.058Z,69042.88
2023-06-11T23:23:05.811Z,69041.75
2023-06-11T23:25:33.677Z,69054.09
2023-06-11T23:28:02.732Z,69050.28
2023-06-11T23:30:32.738Z,69052.56
2023-06-11T23:33:06.968Z,69039.44
2023-06-11T23:35:34.344Z,69049.16
2023-06-11T23:38:04.043Z,69050.69
2023-06-11T23:40:34.548Z,69038.88
2023-06-11T23:43:01.753Z,69042.47
2023-06-11T23:45:28.897Z,69041.34
2023-06-11T23:47:58.280Z,69042.53
2023-06-11T23:50:25.511Z,69028.81
2023-06-11T23:52:52.691Z,69032.63
2023-06-11T23:55:19.981Z,69031.31
2023-06-11T23:58:05.101Z,69030.16
